18°C Temp
13°C Dewpoint
73% Humidity
Temperature
3 KM/H
2 MPH
2 KTS
Calm
Due North

Wind Speed
Mostly Cloudy
Conditions
Pressure 1019.92 (hPa) - 30.12 (in)
Visibility 6.2 (mi) - 10.0 (km)

Current Conditions
LSZA
Location Lugano 50 (km)
Metar :LSZA 141550Z VRB02KT 9999 BKN080 18/13 Q1020 NOSIG
Mon 14th October 16:50 pm

Airport
  Metar Aviation API Data Provided by https://www.checkwx.com/ PHP scripts by weather34.com ©2019